Time;durP1;ratioP1;P1;durP2;ratioP2;P2;SDS_P1;SDS_P2;PMS_P1;PMS_P2;Temp;Humidity;BMP_temperature;BMP_pressure;BME280_temperature;BME280_humidity;BME280_pressure;Samples;Min_cycle;Max_cycle;Signal;HPM_P1;HPM_P2
2023/07/28 00:00:43;;;;;;;0.80;0.75;;;;;;;;;;5980829;28;20374;-77
2023/07/28 00:03:34;;;;;;;1.15;0.50;;;;;;;;;;5934843;28;20052;-78
2023/07/28 00:06:25;;;;;;;0.75;0.50;;;;;;;;;;5953585;28;20134;-77
2023/07/28 00:09:17;;;;;;;0.85;0.63;;;;;;;;;;5949864;28;20048;-76
2023/07/28 00:12:08;;;;;;;0.80;0.57;;;;;;;;;;5940075;28;20073;-77
2023/07/28 00:14:59;;;;;;;0.57;0.55;;;;;;;;;;5951298;28;20056;-78
2023/07/28 00:17:50;;;;;;;0.52;0.52;;;;;;;;;;5962621;28;20047;-77
2023/07/28 00:20:41;;;;;;;0.10;0.10;;;;;;;;;;5953773;28;20059;-77
2023/07/28 00:23:32;;;;;;;0.45;0.43;;;;;;;;;;5962043;28;20132;-76
2023/07/28 00:26:23;;;;;;;0.40;0.32;;;;;;;;;;5962328;28;20588;-77
2023/07/28 00:29:14;;;;;;;0.60;0.60;;;;;;;;;;5953626;28;20048;-78
2023/07/28 00:32:05;;;;;;;12.13;1.00;;;;;;;;;;5962207;28;20131;-78
2023/07/28 00:34:56;;;;;;;2.03;1.30;;;;;;;;;;5954309;28;20070;-77
2023/07/28 00:37:47;;;;;;;0.63;0.63;;;;;;;;;;5962215;28;20123;-77
2023/07/28 00:40:37;;;;;;;0.75;0.30;;;;;;;;;;5953586;28;20479;-78
2023/07/28 00:43:28;;;;;;;1.52;0.57;;;;;;;;;;5961676;28;20505;-77
2023/07/28 00:46:19;;;;;;;0.45;0.32;;;;;;;;;;5961927;28;20052;-78
2023/07/28 00:49:10;;;;;;;0.95;0.65;;;;;;;;;;5944223;28;20052;-78
2023/07/28 00:52:01;;;;;;;1.38;0.90;;;;;;;;;;5961972;28;20058;-79
2023/07/28 00:54:51;;;;;;;3.72;0.63;;;;;;;;;;5953638;28;20048;-79
2023/07/28 00:57:42;;;;;;;0.68;0.68;;;;;;;;;;5936688;28;20075;-78
2023/07/28 01:00:33;;;;;;;0.60;0.50;;;;;;;;;;5929065;28;20409;-78
2023/07/28 01:03:25;;;;;;;0.47;0.40;;;;;;;;;;5935449;28;20047;-78
2023/07/28 01:06:28;;;;;;;0.40;0.17;;;;;;;;;;5931451;28;20063;-77
2023/07/28 01:09:24;;;;;;;0.75;0.50;;;;;;;;;;5920136;28;20059;-78
2023/07/28 01:12:15;;;;;;;0.32;0.32;;;;;;;;;;5919833;28;20044;-78
2023/07/28 01:15:06;;;;;;;1.10;0.75;;;;;;;;;;5929111;28;20052;-79
2023/07/28 01:17:57;;;;;;;14.20;0.70;;;;;;;;;;5937684;28;20395;-77
2023/07/28 01:20:55;;;;;;;1.77;0.65;;;;;;;;;;5919191;28;20089;-78
2023/07/28 01:24:19;;;;;;;1.95;0.93;;;;;;;;;;5931800;28;20044;-78
2023/07/28 01:27:10;;;;;;;1.02;0.82;;;;;;;;;;5936875;28;20055;-77
2023/07/28 01:30:01;;;;;;;0.38;0.38;;;;;;;;;;5952809;28;20048;-78
2023/07/28 01:32:56;;;;;;;1.40;0.88;;;;;;;;;;5942699;28;20043;-78
2023/07/28 01:35:47;;;;;;;0.32;0.30;;;;;;;;;;5952407;28;20170;-77
2023/07/28 01:38:38;;;;;;;6.20;2.15;;;;;;;;;;5960393;28;20051;-77
2023/07/28 01:41:29;;;;;;;0.73;0.65;;;;;;;;;;5960310;28;20501;-78
2023/07/28 01:44:20;;;;;;;1.77;0.82;;;;;;;;;;5952286;28;20052;-77
2023/07/28 01:47:10;;;;;;;0.88;0.70;;;;;;;;;;5960270;28;20525;-78
2023/07/28 01:50:02;;;;;;;0.65;0.52;;;;;;;;;;5952265;28;20058;-80
2023/07/28 01:52:52;;;;;;;0.63;0.63;;;;;;;;;;5942554;28;20047;-77
2023/07/28 01:55:43;;;;;;;0.82;0.52;;;;;;;;;;5951211;28;20134;-78
2023/07/28 01:58:34;;;;;;;0.65;0.60;;;;;;;;;;5959645;28;20051;-77
2023/07/28 02:01:25;;;;;;;1.17;0.40;;;;;;;;;;5959441;28;20043;-77
2023/07/28 02:04:16;;;;;;;0.35;0.35;;;;;;;;;;5951190;28;20059;-77
2023/07/28 02:07:07;;;;;;;1.38;0.38;;;;;;;;;;5959575;28;20180;-77
2023/07/28 02:09:57;;;;;;;0.68;0.60;;;;;;;;;;5951591;28;20067;-77
2023/07/28 02:12:48;;;;;;;0.32;0.30;;;;;;;;;;5959614;28;20047;-77
2023/07/28 02:15:39;;;;;;;0.20;0.20;;;;;;;;;;5951341;28;20039;-77
2023/07/28 02:18:31;;;;;;;0.98;0.57;;;;;;;;;;5959512;28;20043;-76
2023/07/28 02:21:21;;;;;;;0.30;0.25;;;;;;;;;;5959116;28;20040;-77
2023/07/28 02:24:12;;;;;;;0.55;0.43;;;;;;;;;;5951002;28;20387;-77
2023/07/28 02:27:03;;;;;;;0.30;0.25;;;;;;;;;;5959092;28;20044;-77
2023/07/28 02:29:54;;;;;;;0.50;0.50;;;;;;;;;;5951416;28;20055;-77
2023/07/28 02:32:45;;;;;;;0.52;0.52;;;;;;;;;;5958919;28;20043;-78
2023/07/28 02:35:36;;;;;;;0.17;0.15;;;;;;;;;;5950661;28;20131;-77
2023/07/28 02:38:27;;;;;;;0.85;0.68;;;;;;;;;;5957781;28;20043;-78
2023/07/28 02:41:18;;;;;;;0.45;0.30;;;;;;;;;;5958878;28;20058;-77
2023/07/28 02:44:08;;;;;;;0.73;0.47;;;;;;;;;;5950728;28;20048;-78
2023/07/28 02:46:59;;;;;;;0.65;0.55;;;;;;;;;;5926324;28;20174;-78
2023/07/28 02:49:50;;;;;;;1.42;0.77;;;;;;;;;;5959057;28;20047;-77
2023/07/28 02:52:41;;;;;;;0.88;0.60;;;;;;;;;;5958977;28;20043;-77
2023/07/28 02:55:31;;;;;;;0.40;0.40;;;;;;;;;;5958666;28;20074;-77
2023/07/28 02:58:23;;;;;;;0.45;0.45;;;;;;;;;;5955179;28;20401;-78
2023/07/28 03:01:14;;;;;;;0.65;0.52;;;;;;;;;;5957511;28;20555;-77
2023/07/28 03:04:05;;;;;;;1.65;0.80;;;;;;;;;;5958027;28;20122;-77
2023/07/28 03:06:56;;;;;;;1.75;0.88;;;;;;;;;;5959166;28;20550;-76
2023/07/28 03:09:47;;;;;;;1.95;0.85;;;;;;;;;;5945079;28;20057;-77
2023/07/28 03:12:38;;;;;;;0.73;0.68;;;;;;;;;;5957451;28;20046;-76
2023/07/28 03:15:29;;;;;;;1.42;0.52;;;;;;;;;;5956311;28;20470;-76
2023/07/28 03:18:20;;;;;;;0.30;0.30;;;;;;;;;;5947342;28;20368;-76
2023/07/28 03:21:11;;;;;;;1.23;0.75;;;;;;;;;;5954578;28;20054;-77
2023/07/28 03:24:01;;;;;;;0.50;0.40;;;;;;;;;;5957378;28;20047;-77
2023/07/28 03:26:52;;;;;;;1.45;0.40;;;;;;;;;;5958364;28;20055;-76
2023/07/28 03:29:43;;;;;;;0.80;0.70;;;;;;;;;;5943770;28;20043;-76
2023/07/28 03:32:34;;;;;;;1.85;0.93;;;;;;;;;;5957222;28;20502;-77
2023/07/28 03:35:25;;;;;;;0.68;0.45;;;;;;;;;;5957659;28;20047;-77
2023/07/28 03:38:15;;;;;;;0.70;0.60;;;;;;;;;;5947855;28;20048;-77
2023/07/28 03:41:07;;;;;;;1.67;1.00;;;;;;;;;;5932340;28;20048;-76
2023/07/28 03:43:57;;;;;;;0.73;0.73;;;;;;;;;;5934133;28;20054;-77
2023/07/28 03:46:48;;;;;;;0.40;0.40;;;;;;;;;;5916332;28;20048;-77
2023/07/28 03:49:39;;;;;;;1.13;0.57;;;;;;;;;;5934949;28;20044;-77
2023/07/28 03:52:30;;;;;;;0.90;0.30;;;;;;;;;;5938583;28;20098;-76
2023/07/28 03:55:20;;;;;;;1.92;1.08;;;;;;;;;;5938592;28;20052;-77
2023/07/28 03:58:11;;;;;;;1.13;1.02;;;;;;;;;;5938151;28;20052;-77
2023/07/28 04:01:02;;;;;;;0.55;0.55;;;;;;;;;;5938746;28;20467;-76
2023/07/28 04:03:53;;;;;;;1.45;0.85;;;;;;;;;;5939249;28;20055;-77
2023/07/28 04:06:45;;;;;;;0.80;0.47;;;;;;;;;;5938610;28;20040;-76
2023/07/28 04:09:35;;;;;;;1.70;0.63;;;;;;;;;;5938754;28;20048;-77
2023/07/28 04:12:26;;;;;;;1.77;1.05;;;;;;;;;;5937100;28;20044;-76
2023/07/28 04:15:17;;;;;;;0.68;0.68;;;;;;;;;;5938467;28;20044;-76
2023/07/28 04:18:08;;;;;;;0.52;0.40;;;;;;;;;;5938394;28;20402;-76
2023/07/28 04:20:58;;;;;;;0.98;0.55;;;;;;;;;;5937370;28;20044;-76
2023/07/28 04:23:50;;;;;;;1.35;0.65;;;;;;;;;;5938095;28;20044;-76
2023/07/28 04:26:42;;;;;;;1.05;0.90;;;;;;;;;;5938094;28;20044;-77
2023/07/28 04:29:34;;;;;;;0.75;0.70;;;;;;;;;;5929614;28;20074;-77
2023/07/28 04:32:26;;;;;;;1.02;0.82;;;;;;;;;;5938177;28;20040;-77
2023/07/28 04:35:17;;;;;;;1.85;1.33;;;;;;;;;;5929567;28;20044;-77
2023/07/28 04:38:07;;;;;;;1.33;0.88;;;;;;;;;;5938014;28;20052;-76
2023/07/28 04:40:58;;;;;;;0.30;0.30;;;;;;;;;;5936912;28;20483;-76
2023/07/28 04:43:49;;;;;;;1.85;0.57;;;;;;;;;;5936557;28;20055;-77
2023/07/28 04:46:40;;;;;;;1.77;0.73;;;;;;;;;;5937520;28;20047;-77
2023/07/28 04:49:30;;;;;;;0.98;0.70;;;;;;;;;;5929194;28;20047;-76
2023/07/28 04:52:21;;;;;;;1.35;0.88;;;;;;;;;;5937508;28;20058;-76
2023/07/28 04:55:12;;;;;;;0.82;0.57;;;;;;;;;;5936181;28;20063;-77
2023/07/28 04:58:03;;;;;;;0.38;0.38;;;;;;;;;;5937517;28;20048;-77
2023/07/28 05:00:54;;;;;;;0.90;0.30;;;;;;;;;;5937053;28;20498;-77
2023/07/28 05:03:45;;;;;;;0.70;0.38;;;;;;;;;;5936947;28;20064;-77
2023/07/28 05:06:35;;;;;;;4.15;0.85;;;;;;;;;;5937250;28;20040;-77
2023/07/28 05:09:28;;;;;;;0.32;0.32;;;;;;;;;;5928886;28;20051;-77
2023/07/28 05:12:18;;;;;;;2.38;0.98;;;;;;;;;;5937411;28;20502;-76
2023/07/28 05:15:10;;;;;;;1.65;0.82;;;;;;;;;;5928975;28;20052;-75
2023/07/28 05:18:01;;;;;;;0.77;0.38;;;;;;;;;;5937499;28;20048;-76
2023/07/28 05:20:51;;;;;;;0.30;0.30;;;;;;;;;;5937076;28;20052;-76
2023/07/28 05:23:42;;;;;;;1.38;0.60;;;;;;;;;;5936763;28;20055;-77
2023/07/28 05:26:33;;;;;;;0.45;0.35;;;;;;;;;;5936883;28;20093;-77
2023/07/28 05:29:24;;;;;;;0.40;0.40;;;;;;;;;;5928192;28;20041;-76
2023/07/28 05:32:15;;;;;;;0.22;0.20;;;;;;;;;;5936611;28;20074;-76
2023/07/28 05:35:06;;;;;;;0.57;0.32;;;;;;;;;;5928314;28;20135;-77
2023/07/28 05:37:57;;;;;;;2.17;0.30;;;;;;;;;;5936943;28;20051;-77
2023/07/28 05:41:03;;;;;;;0.28;0.28;;;;;;;;;;5936622;28;20055;-77
2023/07/28 05:43:54;;;;;;;1.08;0.65;;;;;;;;;;5936443;28;20055;-77
2023/07/28 05:46:45;;;;;;;0.22;0.17;;;;;;;;;;5936245;28;20074;-77
2023/07/28 05:49:36;;;;;;;2.80;0.60;;;;;;;;;;5927872;28;20044;-77
2023/07/28 05:52:27;;;;;;;0.60;0.43;;;;;;;;;;5936316;28;20174;-77
2023/07/28 05:55:18;;;;;;;0.55;0.55;;;;;;;;;;5927935;28;20070;-78
2023/07/28 05:58:09;;;;;;;0.73;0.73;;;;;;;;;;5935951;28;20597;-77
2023/07/28 06:00:59;;;;;;;0.30;0.30;;;;;;;;;;5935210;28;20055;-76
2023/07/28 06:03:51;;;;;;;1.35;0.93;;;;;;;;;;5936283;28;20040;-77
2023/07/28 06:06:42;;;;;;;0.17;0.17;;;;;;;;;;5935897;28;20086;-77
2023/07/28 06:09:33;;;;;;;0.70;0.47;;;;;;;;;;5927357;28;20051;-77
2023/07/28 06:12:24;;;;;;;2.40;0.50;;;;;;;;;;5935585;28;20044;-77
2023/07/28 06:15:15;;;;;;;0.55;0.55;;;;;;;;;;5927297;28;20391;-77
2023/07/28 06:18:06;;;;;;;0.55;0.55;;;;;;;;;;5935877;28;20052;-76
2023/07/28 06:20:56;;;;;;;1.92;0.68;;;;;;;;;;5935986;28;20433;-77
2023/07/28 06:23:47;;;;;;;2.72;0.82;;;;;;;;;;5935365;28;20044;-75
2023/07/28 06:26:38;;;;;;;0.80;0.65;;;;;;;;;;5935456;28;20118;-77
2023/07/28 06:29:29;;;;;;;1.30;0.88;;;;;;;;;;5927465;28;20044;-77
2023/07/28 06:32:23;;;;;;;6.13;0.73;;;;;;;;;;5935597;28;20052;-77
2023/07/28 06:35:13;;;;;;;3.08;0.60;;;;;;;;;;5927063;28;20051;-77
2023/07/28 06:38:04;;;;;;;0.98;0.80;;;;;;;;;;5935649;28;20123;-77
2023/07/28 06:40:55;;;;;;;1.10;0.57;;;;;;;;;;5935989;28;20347;-76
2023/07/28 06:43:48;;;;;;;0.77;0.60;;;;;;;;;;5935225;28;20494;-78
2023/07/28 06:46:39;;;;;;;0.88;0.40;;;;;;;;;;5914825;28;20406;-76
2023/07/28 06:49:29;;;;;;;0.43;0.43;;;;;;;;;;5926610;28;20052;-76
2023/07/28 06:52:21;;;;;;;1.13;0.60;;;;;;;;;;5934919;28;20048;-77
2023/07/28 06:55:11;;;;;;;0.45;0.40;;;;;;;;;;5927040;28;20078;-77
2023/07/28 06:58:02;;;;;;;0.45;0.45;;;;;;;;;;5935236;28;20048;-77
2023/07/28 07:00:55;;;;;;;1.35;0.45;;;;;;;;;;5935533;28;20048;-77
2023/07/28 07:03:46;;;;;;;0.52;0.40;;;;;;;;;;5934863;28;20071;-78
2023/07/28 07:06:37;;;;;;;0.88;0.70;;;;;;;;;;5934933;28;20048;-77
2023/07/28 07:09:28;;;;;;;0.25;0.25;;;;;;;;;;5926721;28;20044;-78
2023/07/28 07:12:21;;;;;;;0.50;0.50;;;;;;;;;;5934984;28;20056;-77
2023/07/28 07:15:11;;;;;;;0.20;0.20;;;;;;;;;;5926525;28;20517;-77
2023/07/28 07:18:02;;;;;;;0.47;0.47;;;;;;;;;;5935040;28;20144;-77
2023/07/28 07:20:53;;;;;;;4.85;1.45;;;;;;;;;;5935359;28;20048;-78
2023/07/28 07:23:44;;;;;;;0.82;0.70;;;;;;;;;;5934719;28;20382;-77
2023/07/28 07:26:35;;;;;;;1.10;0.60;;;;;;;;;;5938702;28;20048;-77
2023/07/28 07:29:26;;;;;;;0.45;0.35;;;;;;;;;;5931517;28;20036;-77
2023/07/28 07:32:17;;;;;;;0.30;0.30;;;;;;;;;;5939549;28;20047;-77
2023/07/28 07:35:08;;;;;;;1.25;0.70;;;;;;;;;;5931182;28;20502;-77
2023/07/28 07:37:59;;;;;;;0.65;0.47;;;;;;;;;;5940134;28;20054;-77
2023/07/28 07:40:50;;;;;;;0.40;0.40;;;;;;;;;;5939561;28;20209;-78
2023/07/28 07:43:41;;;;;;;0.52;0.52;;;;;;;;;;5938968;28;20047;-78
2023/07/28 07:46:32;;;;;;;0.95;0.63;;;;;;;;;;5934577;28;20044;-79
2023/07/28 07:49:23;;;;;;;0.47;0.30;;;;;;;;;;5931104;28;20047;-77
2023/07/28 07:52:14;;;;;;;1.00;0.82;;;;;;;;;;5939141;28;20048;-77
2023/07/28 07:55:06;;;;;;;0.70;0.32;;;;;;;;;;5930776;28;20052;-79
2023/07/28 07:57:57;;;;;;;0.30;0.30;;;;;;;;;;5939458;28;20051;-77
2023/07/28 08:00:48;;;;;;;0.40;0.35;;;;;;;;;;5937641;28;20052;-78
2023/07/28 08:03:39;;;;;;;0.40;0.40;;;;;;;;;;5937295;28;20067;-78
2023/07/28 08:06:30;;;;;;;0.60;0.60;;;;;;;;;;5916777;28;20048;-78
2023/07/28 08:09:21;;;;;;;0.20;0.20;;;;;;;;;;5929991;28;20110;-81
2023/07/28 08:12:14;;;;;;;0.38;0.38;;;;;;;;;;5938656;28;20054;-80
2023/07/28 08:15:05;;;;;;;0.95;0.57;;;;;;;;;;5937644;28;20376;-80
2023/07/28 08:17:56;;;;;;;1.20;0.65;;;;;;;;;;5938917;28;20055;-81
2023/07/28 08:20:47;;;;;;;0.20;0.20;;;;;;;;;;5939259;28;20040;-82
2023/07/28 08:23:38;;;;;;;1.23;0.52;;;;;;;;;;5938682;28;20055;-82
2023/07/28 08:26:28;;;;;;;1.38;0.95;;;;;;;;;;5938549;28;20058;-83
2023/07/28 08:29:19;;;;;;;2.83;0.85;;;;;;;;;;5930151;28;20048;-80
2023/07/28 08:32:11;;;;;;;0.35;0.35;;;;;;;;;;5938343;28;20127;-81
2023/07/28 08:35:03;;;;;;;0.73;0.73;;;;;;;;;;5930033;28;20075;-81
2023/07/28 08:37:53;;;;;;;0.20;0.20;;;;;;;;;;5938583;28;20043;-83
2023/07/28 08:40:45;;;;;;;2.33;0.93;;;;;;;;;;5938894;28;20039;-82
2023/07/28 08:43:36;;;;;;;0.70;0.70;;;;;;;;;;5938810;28;20076;-81
2023/07/28 08:46:30;;;;;;;4.47;1.17;;;;;;;;;;5939028;28;20052;-81
2023/07/28 08:49:21;;;;;;;2.38;1.00;;;;;;;;;;5938457;28;20048;-82
2023/07/28 08:52:16;;;;;;;0.50;0.50;;;;;;;;;;5939160;28;20048;-81
2023/07/28 08:55:09;;;;;;;0.47;0.47;;;;;;;;;;5931691;28;20059;-81
2023/07/28 08:58:21;;;;;;;0.85;0.82;;;;;;;;;;5939510;28;20071;-82
2023/07/28 09:01:12;;;;;;;0.20;0.20;;;;;;;;;;5937497;28;20532;-82
2023/07/28 09:04:10;;;;;;;1.63;0.95;;;;;;;;;;5937991;28;20056;-82
2023/07/28 09:07:05;;;;;;;2.53;1.13;;;;;;;;;;5930037;28;20052;-81
2023/07/28 09:10:03;;;;;;;0.60;0.60;;;;;;;;;;5936867;28;20401;-82
2023/07/28 09:12:54;;;;;;;1.10;1.00;;;;;;;;;;5961324;28;20046;-80
2023/07/28 09:15:46;;;;;;;1.30;0.95;;;;;;;;;;5961329;28;20054;-82
2023/07/28 09:18:37;;;;;;;0.63;0.63;;;;;;;;;;5957126;28;20047;-82
2023/07/28 09:21:28;;;;;;;1.20;0.60;;;;;;;;;;5937087;28;20048;-82
2023/07/28 09:24:19;;;;;;;0.80;0.80;;;;;;;;;;5937006;28;20048;-82
2023/07/28 09:27:24;;;;;;;0.68;0.68;;;;;;;;;;5919396;28;20519;-81
2023/07/28 09:30:16;;;;;;;0.57;0.50;;;;;;;;;;5937363;28;20328;-82
2023/07/28 09:33:08;;;;;;;2.10;1.27;;;;;;;;;;5935438;28;20151;-81
2023/07/28 09:36:17;;;;;;;0.82;0.50;;;;;;;;;;5937250;28;20374;-82
2023/07/28 09:39:08;;;;;;;10.07;0.90;;;;;;;;;;5911820;28;20053;-81
2023/07/28 09:42:00;;;;;;;1.60;0.63;;;;;;;;;;5936593;28;20048;-81
2023/07/28 09:44:51;;;;;;;1.60;1.20;;;;;;;;;;5936880;28;20047;-81
2023/07/28 09:47:45;;;;;;;2.50;0.90;;;;;;;;;;5918583;28;20592;-80
2023/07/28 09:50:38;;;;;;;0.73;0.57;;;;;;;;;;5936499;28;20134;-80
2023/07/28 09:53:33;;;;;;;0.40;0.40;;;;;;;;;;5935005;28;20051;-82
2023/07/28 09:56:28;;;;;;;1.15;0.90;;;;;;;;;;5935143;28;20479;-80
2023/07/28 09:59:21;;;;;;;0.52;0.45;;;;;;;;;;5936099;28;20051;-82
2023/07/28 10:02:12;;;;;;;0.98;0.63;;;;;;;;;;5934739;28;20081;-82
2023/07/28 10:05:06;;;;;;;0.60;0.60;;;;;;;;;;5936287;28;20054;-80
2023/07/28 10:07:58;;;;;;;1.00;0.43;;;;;;;;;;5935133;28;20066;-81
2023/07/28 10:10:49;;;;;;;0.70;0.70;;;;;;;;;;5934652;28;20529;-80
2023/07/28 10:13:46;;;;;;;0.40;0.32;;;;;;;;;;5934556;28;20040;-80
2023/07/28 10:16:41;;;;;;;0.25;0.25;;;;;;;;;;5935925;28;20502;-79
2023/07/28 10:19:35;;;;;;;1.52;1.20;;;;;;;;;;5934509;28;20047;-79
2023/07/28 10:22:26;;;;;;;2.67;0.95;;;;;;;;;;5935595;28;20046;-81
2023/07/28 10:25:26;;;;;;;0.90;0.68;;;;;;;;;;5935388;28;20044;-80
2023/07/28 10:28:34;;;;;;;1.23;0.93;;;;;;;;;;5933987;28;20084;-80
2023/07/28 10:31:30;;;;;;;1.27;0.57;;;;;;;;;;5934271;28;20051;-81
2023/07/28 10:34:22;;;;;;;2.30;1.80;;;;;;;;;;5935738;28;20048;-83
2023/07/28 10:37:14;;;;;;;1.27;0.60;;;;;;;;;;5935370;28;20055;-82
2023/07/28 10:40:30;;;;;;;1.20;0.95;;;;;;;;;;5935497;28;20101;-78
2023/07/28 10:43:21;;;;;;;1.45;0.80;;;;;;;;;;5934953;28;20498;-82
2023/07/28 10:46:17;;;;;;;1.00;0.90;;;;;;;;;;5935196;28;20047;-76
2023/07/28 10:49:08;;;;;;;0.85;0.65;;;;;;;;;;5933621;28;20470;-80
2023/07/28 10:51:59;;;;;;;0.38;0.38;;;;;;;;;;5935591;28;20050;-80
2023/07/28 10:54:50;;;;;;;0.32;0.30;;;;;;;;;;5935541;28;20044;-78
2023/07/28 10:57:45;;;;;;;1.20;0.80;;;;;;;;;;5935004;28;20457;-79
2023/07/28 11:00:36;;;;;;;1.95;0.57;;;;;;;;;;5932938;28;20055;-78
2023/07/28 11:03:28;;;;;;;2.75;0.93;;;;;;;;;;5934744;28;20040;-81
2023/07/28 11:06:19;;;;;;;0.88;0.65;;;;;;;;;;5935200;28;20105;-79
2023/07/28 11:09:12;;;;;;;1.67;1.13;;;;;;;;;;5935134;28;20131;-81
2023/07/28 11:12:03;;;;;;;0.43;0.43;;;;;;;;;;5935106;28;20048;-82
2023/07/28 11:14:54;;;;;;;0.57;0.40;;;;;;;;;;5934161;28;20055;-78
2023/07/28 11:17:50;;;;;;;0.93;0.65;;;;;;;;;;5935473;28;20044;-78
2023/07/28 11:20:41;;;;;;;0.45;0.20;;;;;;;;;;5933661;28;20505;-78
2023/07/28 11:23:32;;;;;;;0.22;0.22;;;;;;;;;;5934984;28;20052;-80
2023/07/28 11:26:23;;;;;;;0.60;0.60;;;;;;;;;;5935174;28;20135;-78
2023/07/28 11:29:15;;;;;;;1.30;0.80;;;;;;;;;;5935306;28;20052;-80
2023/07/28 11:32:08;;;;;;;1.40;1.05;;;;;;;;;;5933964;28;20076;-79
2023/07/28 11:35:10;;;;;;;0.82;0.65;;;;;;;;;;5935754;28;20054;-81
2023/07/28 11:38:01;;;;;;;0.52;0.52;;;;;;;;;;5934716;28;20110;-77
2023/07/28 11:40:53;;;;;;;2.00;0.60;;;;;;;;;;5935318;28;20052;-80
2023/07/28 11:43:48;;;;;;;1.20;0.77;;;;;;;;;;5934557;28;20044;-81
2023/07/28 11:46:41;;;;;;;0.43;0.43;;;;;;;;;;5935292;28;20040;-81
2023/07/28 11:49:33;;;;;;;0.88;0.60;;;;;;;;;;5935507;28;20063;-81
2023/07/28 11:52:34;;;;;;;5.95;1.35;;;;;;;;;;5935312;28;20123;-79
2023/07/28 11:55:26;;;;;;;0.30;0.30;;;;;;;;;;5935539;28;20048;-79
2023/07/28 11:58:17;;;;;;;0.40;0.40;;;;;;;;;;5934137;28;20549;-80
2023/07/28 12:01:08;;;;;;;1.95;0.40;;;;;;;;;;5935747;28;20048;-82
2023/07/28 12:04:00;;;;;;;0.05;0.05;;;;;;;;;;5936163;28;20067;-80
2023/07/28 12:07:12;;;;;;;0.65;0.63;;;;;;;;;;5936220;28;20493;-81
2023/07/28 12:10:07;;;;;;;0.70;0.40;;;;;;;;;;5934532;28;20044;-80
2023/07/28 12:13:07;;;;;;;0.75;0.30;;;;;;;;;;5939709;28;20552;-79
2023/07/28 12:16:01;;;;;;;0.20;0.20;;;;;;;;;;5939987;28;20051;-81
2023/07/28 12:18:58;;;;;;;0.50;0.50;;;;;;;;;;5940219;28;20059;-79
2023/07/28 12:21:49;;;;;;;0.70;0.50;;;;;;;;;;5939515;28;20048;-80
2023/07/28 12:24:39;;;;;;;0.32;0.32;;;;;;;;;;5940033;28;20062;-80
2023/07/28 12:27:31;;;;;;;0.57;0.20;;;;;;;;;;5939972;28;20402;-79
2023/07/28 12:30:23;;;;;;;0.45;0.40;;;;;;;;;;5938365;28;20097;-80
2023/07/28 12:33:14;;;;;;;1.52;0.70;;;;;;;;;;5962660;28;20051;-79
2023/07/28 12:36:07;;;;;;;1.02;0.75;;;;;;;;;;5950552;28;20051;-81
2023/07/28 12:39:01;;;;;;;0.20;0.20;;;;;;;;;;5946034;28;20489;-80
2023/07/28 12:42:12;;;;;;;1.40;0.45;;;;;;;;;;5956572;28;20055;-81
2023/07/28 12:45:06;;;;;;;0.10;0.10;;;;;;;;;;5940011;28;20055;-80
2023/07/28 12:48:00;;;;;;;0.63;0.40;;;;;;;;;;5941857;28;20055;-80
2023/07/28 12:50:51;;;;;;;0.20;0.20;;;;;;;;;;5922230;28;20044;-80
2023/07/28 12:53:53;;;;;;;0.88;0.35;;;;;;;;;;5916313;28;20575;-79
2023/07/28 12:56:46;;;;;;;2.65;0.35;;;;;;;;;;5949984;28;20490;-80
2023/07/28 12:59:36;;;;;;;0.10;0.10;;;;;;;;;;5957382;28;20055;-79
2023/07/28 13:02:47;;;;;;;0.20;0.20;;;;;;;;;;5939406;28;20062;-80
2023/07/28 13:05:38;;;;;;;0.47;0.30;;;;;;;;;;5938913;28;20048;-80
2023/07/28 13:08:29;;;;;;;0.20;0.20;;;;;;;;;;5922468;28;20062;-78
2023/07/28 13:11:23;;;;;;;0.57;0.45;;;;;;;;;;5939888;28;20047;-80
2023/07/28 13:14:13;;;;;;;0.82;0.30;;;;;;;;;;5938690;28;20078;-81
2023/07/28 13:17:04;;;;;;;0.82;0.68;;;;;;;;;;5944254;28;20142;-81
2023/07/28 13:19:57;;;;;;;0.40;0.30;;;;;;;;;;5899453;28;20049;-80
2023/07/28 13:22:47;;;;;;;4.10;0.30;;;;;;;;;;5906790;28;20483;-79
2023/07/28 13:25:38;;;;;;;1.80;1.13;;;;;;;;;;5930634;28;20048;-80
2023/07/28 13:28:29;;;;;;;0.13;0.10;;;;;;;;;;5939306;28;20052;-80
2023/07/28 13:31:20;;;;;;;0.32;0.30;;;;;;;;;;5926219;28;20056;-81
2023/07/28 13:34:12;;;;;;;0.60;0.45;;;;;;;;;;5939625;28;20097;-81
2023/07/28 13:37:03;;;;;;;0.47;0.30;;;;;;;;;;5940685;28;20524;-78
2023/07/28 13:39:53;;;;;;;0.65;0.30;;;;;;;;;;5945785;28;20110;-80
2023/07/28 13:42:44;;;;;;;0.30;0.30;;;;;;;;;;5955799;27;20047;-78
2023/07/28 13:45:35;;;;;;;0.90;0.20;;;;;;;;;;5967394;27;20058;-79
2023/07/28 13:48:26;;;;;;;0.38;0.38;;;;;;;;;;5962043;27;20490;-80
2023/07/28 13:51:16;;;;;;;0.68;0.50;;;;;;;;;;5962104;28;20047;-79
2023/07/28 13:54:12;;;;;;;0.50;0.35;;;;;;;;;;5963514;28;20065;-82
2023/07/28 13:57:06;;;;;;;0.95;0.55;;;;;;;;;;5964196;28;20054;-80
2023/07/28 13:59:57;;;;;;;0.40;0.22;;;;;;;;;;5964628;28;20462;-80
2023/07/28 14:02:47;;;;;;;0.35;0.20;;;;;;;;;;5964674;28;20048;-79
2023/07/28 14:05:38;;;;;;;0.35;0.30;;;;;;;;;;5961974;28;20047;-80
2023/07/28 14:08:29;;;;;;;0.43;0.25;;;;;;;;;;5944733;28;20051;-78
2023/07/28 14:11:20;;;;;;;0.30;0.30;;;;;;;;;;5962282;28;20075;-78
2023/07/28 14:14:11;;;;;;;0.43;0.20;;;;;;;;;;5960790;28;20050;-80
2023/07/28 14:17:02;;;;;;;0.25;0.13;;;;;;;;;;5961720;28;20513;-80
2023/07/28 14:19:53;;;;;;;0.55;0.22;;;;;;;;;;5961221;28;20131;-80
2023/07/28 14:22:44;;;;;;;0.03;0.03;;;;;;;;;;5962690;28;20070;-80
2023/07/28 14:25:34;;;;;;;0.10;0.10;;;;;;;;;;5961987;28;20043;-78
2023/07/28 14:28:26;;;;;;;0.10;0.10;;;;;;;;;;5962066;28;20050;-79
2023/07/28 14:31:17;;;;;;;0.25;0.10;;;;;;;;;;5962116;28;20084;-81
2023/07/28 14:34:08;;;;;;;0.10;0.10;;;;;;;;;;5959788;28;20116;-79
2023/07/28 14:37:05;;;;;;;0.85;0.20;;;;;;;;;;5961348;28;20058;-81
2023/07/28 14:39:56;;;;;;;0.17;0.17;;;;;;;;;;5957091;28;20051;-80
2023/07/28 14:42:47;;;;;;;0.08;0.08;;;;;;;;;;5959748;28;20039;-79
2023/07/28 14:45:38;;;;;;;0.10;0.10;;;;;;;;;;5960042;28;20554;-79
2023/07/28 14:48:28;;;;;;;0.00;0.00;;;;;;;;;;5960269;28;20482;-79
2023/07/28 14:51:20;;;;;;;0.50;0.32;;;;;;;;;;5959721;28;20044;-80
2023/07/28 14:54:11;;;;;;;0.38;0.30;;;;;;;;;;5960433;28;20047;-81
2023/07/28 14:57:01;;;;;;;0.30;0.20;;;;;;;;;;5960437;28;20054;-79
2023/07/28 14:59:52;;;;;;;0.40;0.30;;;;;;;;;;5960203;28;20047;-80
2023/07/28 15:02:43;;;;;;;1.20;0.63;;;;;;;;;;5960727;28;20042;-78
2023/07/28 15:05:34;;;;;;;0.40;0.30;;;;;;;;;;5959853;28;20053;-77
2023/07/28 15:08:25;;;;;;;0.10;0.10;;;;;;;;;;5960012;28;20490;-79
2023/07/28 15:11:17;;;;;;;0.35;0.17;;;;;;;;;;5959511;28;20051;-79
2023/07/28 15:14:08;;;;;;;0.52;0.20;;;;;;;;;;5959516;28;20051;-79
2023/07/28 15:16:59;;;;;;;0.43;0.38;;;;;;;;;;5960559;28;20050;-78
2023/07/28 15:19:50;;;;;;;0.25;0.25;;;;;;;;;;5959717;28;20044;-78
2023/07/28 15:22:41;;;;;;;3.92;0.15;;;;;;;;;;5959519;28;20666;-78
2023/07/28 15:25:32;;;;;;;0.40;0.30;;;;;;;;;;5959322;28;20139;-78
2023/07/28 15:28:24;;;;;;;0.10;0.10;;;;;;;;;;5959275;28;20044;-79
2023/07/28 15:31:14;;;;;;;0.10;0.10;;;;;;;;;;5945863;28;20047;-78
2023/07/28 15:34:05;;;;;;;0.20;0.20;;;;;;;;;;5959803;28;20050;-79
2023/07/28 15:36:57;;;;;;;0.28;0.28;;;;;;;;;;5960045;28;20062;-78
2023/07/28 15:39:48;;;;;;;0.35;0.20;;;;;;;;;;5957979;28;20490;-78
2023/07/28 15:42:39;;;;;;;0.30;0.20;;;;;;;;;;5964822;28;20039;-79
2023/07/28 15:45:33;;;;;;;0.17;0.13;;;;;;;;;;5956082;27;20055;-80
2023/07/28 15:48:24;;;;;;;1.20;0.30;;;;;;;;;;5910915;27;20054;-78
2023/07/28 15:51:14;;;;;;;0.20;0.20;;;;;;;;;;5948194;27;20047;-78
2023/07/28 15:54:05;;;;;;;0.20;0.20;;;;;;;;;;5970898;27;20051;-77
2023/07/28 15:56:56;;;;;;;0.55;0.10;;;;;;;;;;5979666;27;20051;-79
2023/07/28 15:59:47;;;;;;;0.10;0.10;;;;;;;;;;5978792;27;20057;-79
2023/07/28 16:02:38;;;;;;;0.10;0.10;;;;;;;;;;5987691;27;20035;-80
2023/07/28 16:05:28;;;;;;;0.40;0.40;;;;;;;;;;5982494;27;20039;-79
2023/07/28 16:08:19;;;;;;;1.23;0.60;;;;;;;;;;5962705;28;20474;-78
2023/07/28 16:11:10;;;;;;;0.20;0.20;;;;;;;;;;5959207;27;20366;-79
2023/07/28 16:14:01;;;;;;;3.25;0.73;;;;;;;;;;5981111;27;20044;-79
2023/07/28 16:16:51;;;;;;;0.17;0.17;;;;;;;;;;5971304;27;20055;-78
2023/07/28 16:19:42;;;;;;;0.28;0.28;;;;;;;;;;5960641;28;20050;-79
2023/07/28 16:22:33;;;;;;;1.92;0.60;;;;;;;;;;5963427;28;20048;-78
2023/07/28 16:25:24;;;;;;;0.57;0.10;;;;;;;;;;5963070;28;20532;-79
2023/07/28 16:28:14;;;;;;;4.25;0.57;;;;;;;;;;5963432;28;20438;-77
2023/07/28 16:31:07;;;;;;;0.15;0.10;;;;;;;;;;5960122;27;20050;-78
2023/07/28 16:33:58;;;;;;;0.22;0.22;;;;;;;;;;5963072;27;20051;-77
2023/07/28 16:36:49;;;;;;;0.40;0.40;;;;;;;;;;5970066;27;20039;-78
2023/07/28 16:39:40;;;;;;;0.55;0.15;;;;;;;;;;5938635;28;20066;-77
2023/07/28 16:42:31;;;;;;;0.22;0.22;;;;;;;;;;5961454;28;20050;-79
2023/07/28 16:45:21;;;;;;;0.77;0.45;;;;;;;;;;5963004;28;20383;-80
2023/07/28 16:48:12;;;;;;;0.40;0.40;;;;;;;;;;5961977;28;20051;-81
2023/07/28 16:51:03;;;;;;;0.38;0.38;;;;;;;;;;5961406;28;20458;-79
2023/07/28 16:53:54;;;;;;;2.28;0.85;;;;;;;;;;5961690;28;20044;-78
2023/07/28 16:56:45;;;;;;;0.50;0.47;;;;;;;;;;5951745;28;20398;-77
2023/07/28 16:59:36;;;;;;;7.72;0.80;;;;;;;;;;5960135;28;20059;-77
2023/07/28 17:02:27;;;;;;;0.50;0.45;;;;;;;;;;5959106;27;20043;-79
2023/07/28 17:05:18;;;;;;;2.17;0.45;;;;;;;;;;5954916;28;20500;-77
2023/07/28 17:08:09;;;;;;;0.20;0.20;;;;;;;;;;5888972;28;20478;-76
2023/07/28 17:11:00;;;;;;;0.93;0.22;;;;;;;;;;5960773;28;20051;-78